• Join FlightAware (Why Join?)
  • Login
  • US Flag 
12:28AM EST


 

Airport Tracker/Info


-or-


 

Live Flight TrackerFlight Track Log ✈ TRS359 ✈ 28-Apr-2013 ✈ KMCI - KATL

Flight Track Log - Related Links

Times and Time Zones

All times are in EDT time to prevent confusion due to time zone crossing. See the TRS359 flight status page for this flight to view local times or setup timezone preferences in your user account.

Time Position Orientation Groundspeed Altitude Reporting Facility
EDT Latitude Longitude Course Direction KTS MPH feet Rate Location/Type
07:45AM 39.2833 -94.7333 166° South 180 207 1,700  Level Kansas City TRACON
07:46AM 39.2333 -94.7167 166° South 221 254 3,400 1,500 Climbing Kansas City TRACON
07:47AM 39.1861 -94.7178 181° South 251 289 4,400 2,040 Climbing Kansas City Center
07:48AM 39.0969 -94.7006 171° South 286 329 7,100 2,400 Climbing Kansas City Center
07:49AM 39.0167 -94.6800 169° South 305 351 9,400 1,860 Climbing Kansas City Center
07:50AM 38.9300 -94.6567 168° South 330 380 10,900 1,680 Climbing Kansas City Center
07:51AM 38.8158 -94.6281 169° South 372 428 12,900 1,800 Climbing Kansas City Center
07:52AM 38.7128 -94.6003 168° South 390 449 14,600 1,860 Climbing Kansas City Center
07:53AM 38.6061 -94.5742 169° South 404 465 16,700 1,920 Climbing Kansas City Center
07:54AM 38.4958 -94.5464 169° South 419 482 18,500 1,920 Climbing Kansas City Center
07:55AM 38.3622 -94.5114 168° South 436 502 20,600 1,920 Climbing Kansas City Center
07:56AM 38.2531 -94.4511 157° South 449 517 22,400 1,680 Climbing Kansas City Center
07:57AM 38.1636 -94.3497 138° Southeast 451 519 24,000 1,680 Climbing Kansas City Center
07:58AM 38.0611 -94.2217 135° Southeast 461 531 25,900 1,560 Climbing Kansas City Center
07:59AM 37.9739 -94.1078 134° Southeast 467 537 27,200 1,200 Climbing Kansas City Center
08:00AM 37.8772 -93.9856 135° Southeast 473 544 28,400 1,140 Climbing Kansas City Center
08:01AM 37.7803 -93.8639 135° Southeast 484 557 29,600 1,500 Climbing Kansas City Center
08:02AM 37.6850 -93.7439 135° Southeast 485 558 31,500 1,440 Climbing Kansas City Center
08:03AM 37.5922 -93.6289 135° Southeast 474 545 32,600 960 Climbing Kansas City Center
08:04AM 37.4989 -93.5117 135° Southeast 473 544 33,500 960 Climbing Kansas City Center
08:05AM 37.4031 -93.3928 135° Southeast 479 551 34,600 720 Climbing Kansas City Center
08:06AM 37.3114 -93.2706 133° Southeast 480 552 35,000 180 Climbing Kansas City Center
08:07AM 37.2278 -93.1428 129° Southeast 477 549 35,000  Level Kansas City Center
08:08AM 37.1417 -93.0150 130° Southeast 478 550 35,000  Level Kansas City Center
08:09AM 37.0550 -92.8861 130° Southeast 481 554 35,000  Level Kansas City Center
08:10AM 36.9681 -92.7567 130° Southeast 483 556 35,000  Level Kansas City Center
08:11AM 36.8808 -92.6281 130° Southeast 484 557 35,000  Level Kansas City Center
08:11AM 36.8253 -92.5469 131° Southeast 489 563 35,000  Level Memphis Center
08:12AM 36.7358 -92.4203 131° Southeast 489 563 35,000  Level Memphis Center
08:13AM 36.6481 -92.2914 130° Southeast 489 563 35,000  Level Memphis Center
08:14AM 36.5625 -92.1628 130° Southeast 489 563 35,000  Level Memphis Center
08:15AM 36.4767 -92.0369 130° Southeast 489 563 35,000  Level Memphis Center
08:16AM 36.3908 -91.9089 130° Southeast 489 563 35,000  Level Memphis Center
08:17AM 36.3028 -91.7861 132° Southeast 489 563 35,000  Level Memphis Center
08:18AM 36.2081 -91.6586 133° Southeast 489 563 35,000  Level Memphis Center
08:19AM 36.1178 -91.5286 131° Southeast 495 570 35,000  Level Memphis Center
08:20AM 36.0292 -91.4042 131° Southeast 489 563 35,000  Level Memphis Center
08:21AM 35.9406 -91.2775 131° Southeast 489 563 35,000  Level Memphis Center
08:22AM 35.8517 -91.1483 130° Southeast 489 563 35,000  Level Memphis Center
08:23AM 35.7628 -91.0247 132° Southeast 496 571 35,000  Level Memphis Center
08:24AM 35.6694 -90.8861 130° Southeast 486 559 35,000  Level Memphis Center
08:25AM 35.5783 -90.7603 132° Southeast 486 559 35,000  Level Memphis Center
08:26AM 35.4889 -90.6325 131° Southeast 486 559 35,000  Level Memphis Center
08:27AM 35.3994 -90.5072 131° Southeast 493 567 35,000  Level Memphis Center
08:28AM 35.3097 -90.3850 132° Southeast 488 562 35,000  Level Memphis Center
08:29AM 35.2181 -90.2581 131° Southeast 495 570 35,000  Level Memphis Center
08:30AM 35.1261 -90.1336 132° Southeast 489 563 35,000  Level Memphis Center
08:31AM 35.0172 -90.0403 145° Southeast 483 556 35,000  Level Memphis Center
08:32AM 34.8983 -90.0025 165° South 463 533 35,000  Level Memphis Center
08:33AM 34.7814 -90.0081 182° South 423 487 35,000  Level Memphis Center
08:34AM 34.6647 -90.0136 182° South 423 487 35,000  Level Memphis Center
08:35AM 34.5542 -90.0192 182° South 418 481 35,000  Level Memphis Center
08:36AM 34.4414 -90.0297 184° South 413 475 35,000  Level Memphis Center
08:37AM 34.3267 -90.0353 182° South 408 470 35,000  Level Memphis Center
08:38AM 34.2267 -90.0431 184° South 408 470 35,000  Level Memphis Center
08:39AM 34.1117 -90.0536 184° South 408 470 35,000  Level Memphis Center
08:40AM 34.0011 -90.0589 182° South 408 470 35,000  Level Memphis Center
08:41AM 33.8886 -90.0694 184° South 408 470 35,000  Level Memphis Center
08:42AM 33.7758 -90.0797 184° South 408 470 35,000  Level Memphis Center
08:43AM 33.6611 -90.0853 182° South 408 470 35,000  Level Memphis Center
08:44AM 33.5483 -90.0956 184° South 408 470 35,000  Level Memphis Center
08:45AM 33.4314 -90.1033 183° South 413 475 35,000  Level Memphis Center
08:46AM 33.3189 -90.1111 183° South 413 475 35,000  Level Memphis Center
08:47AM 33.2039 -90.0867 170° South 413 475 35,000  Level Memphis Center
08:48AM 33.1200 -89.9628 129° Southeast 415 478 35,000  Level Memphis Center
08:49AM 33.0300 -89.8394 131° Southeast 435 501 35,000  Level Memphis Center
08:50AM 32.9997 -89.6636 102° East 462 532 35,000  Level Memphis Center
08:51AM 32.9572 -89.5106 108° East 480 552 35,000  Level Memphis Center
08:52AM 32.9161 -89.3525 107° East 486 559 35,000  Level Memphis Center
08:53AM 32.8525 -89.2122 118° Southeast 486 559 35,000  Level Memphis Center
08:54AM 32.7906 -89.0697 117° Southeast 481 554 35,000  Level Memphis Center
08:55AM 32.7283 -88.9275 117° Southeast 481 554 35,000  Level Memphis Center
08:56AM 32.6642 -88.7878 119° Southeast 481 554 35,000  Level Memphis Center
08:57AM 32.6017 -88.6458 118° Southeast 481 554 35,000  Level Memphis Center
08:59AM 32.4953 -88.4197 119° Southeast 490 564 35,000  Level Atlanta Center
09:00AM 32.4506 -88.2700 109° East 490 564 35,000  Level Atlanta Center
09:01AM 32.4622 -88.1081 85° East 480 552 35,000  Level Atlanta Center
09:02AM 32.4611 -87.9481 90° East 480 552 35,000 -240 Level Atlanta Center
09:03AM 32.4389 -87.7869 99° East 480 552 34,600 -720 Descending Atlanta Center
09:04AM 32.4164 -87.6311 100° East 485 558 33,600 -840 Descending Atlanta Center
09:05AM 32.3961 -87.4728 99° East 485 558 33,000 -300 Descending Atlanta Center
09:06AM 32.3603 -87.3289 106° East 490 564 33,000  Level Atlanta Center
09:07AM 32.3247 -87.1750 105° East 495 570 33,000  Level Atlanta Center
09:08AM 32.2867 -87.0264 107° East 485 558 33,000  Level Atlanta Center
09:09AM 32.2036 -86.9156 132° Southeast 455 524 33,000  Level Atlanta Center
09:10AM 32.0906 -86.8458 152° Southeast 430 495 33,000 -480 Level Atlanta Center
09:11AM 31.9750 -86.7811 155° Southeast 445 512 32,100 -1,020 Descending Atlanta Center
09:12AM 31.8703 -86.7069 149° Southeast 450 518 31,000 -1,080 Descending Atlanta Center
09:13AM 31.8314 -86.5714 109° East 414 476 30,000 -1,020 Descending Atlanta Center
09:14AM 31.8881 -86.4506 61° Northeast 349 402 29,000 -1,020 Descending Atlanta Center
09:15AM 31.9794 -86.3575 41° Northeast 358 412 28,000 -1,020 Descending Atlanta Center
09:16AM 32.0647 -86.2667 42° Northeast 386 444 27,000 -540 Descending Atlanta Center
09:17AM 32.1481 -86.1608 47° Northeast 393 452 27,000  Level Atlanta Center
09:18AM 32.1442 -86.0061 92° East 382 440 27,000 -180 Level Atlanta Center
09:19AM 32.1506 -85.8714 87° East 397 457 26,700 -660 Descending Atlanta Center
09:20AM 32.2167 -85.7647 54° Northeast 385 443 25,700 -900 Descending Atlanta Center
09:21AM 32.3117 -85.6978 31° Northeast 380 437 25,000 -780 Descending Atlanta Center
09:22AM 32.4083 -85.6356 29° Northeast 380 437 24,200 -960 Descending Atlanta Center
09:23AM 32.5031 -85.5758 28° Northeast 385 443 23,100 -1,080 Descending Atlanta Center
09:24AM 32.5936 -85.5131 30° Northeast 380 437 22,100 -960 Descending Atlanta Center
09:25AM 32.6861 -85.4506 30° Northeast 380 437 21,200 -1,020 Descending Atlanta Center
09:26AM 32.7786 -85.3878 30° Northeast 380 437 20,100 -1,080 Descending Atlanta Center
09:27AM 32.8711 -85.3275 29° Northeast 380 437 19,100 -1,500 Descending Atlanta Center
09:28AM 32.9617 -85.2619 31° Northeast 380 437 17,100 -2,100 Descending Atlanta Center
09:29AM 33.0497 -85.2036 29° Northeast 380 437 15,000 -2,040 Descending Atlanta Center
09:30AM 33.1131 -85.1275 45° Northeast 361 415 13,100 -1,500 Descending Atlanta Center
09:31AM 33.1744 -85.0439 49° Northeast 343 395 12,100 -1,380 Descending Atlanta Center
09:32AM 33.2378 -84.9578 49° Northeast 337 388 10,400 -1,860 Descending Atlanta Center
09:33AM 33.3050 -84.8689 48° Northeast 325 374 8,400 -1,980 Descending Atlanta Center
09:34AM 33.3619 -84.8000 45° Northeast 309 356 6,500 -1,620 Descending Atlanta Center
09:35AM 33.4392 -84.8056 357° North 252 290 5,200 -1,200 Descending Atlanta Center
09:36AM 33.5167 -84.8000 North 270 311 4,200 -1,020 Descending Atlanta TRACON
09:37AM 33.5833 -84.7833 12° North 275 316 3,200 -660 Descending Atlanta TRACON
09:38AM 33.6167 -84.7167 59° Northeast 247 284 3,000 -120 Descending Atlanta TRACON
09:39AM 33.6167 -84.6333 90° East 219 252 3,000  Level Atlanta TRACON
09:40AM 33.6167 -84.5667 90° East 206 237 3,000 -480 Level Atlanta TRACON
09:41AM 33.6167 -84.5000 90° East 158 182 2,000 -840 Descending Atlanta TRACON
09:42AM 33.6167 -84.4667 90° East 132 152 1,400 -660 Descending Atlanta TRACON
09:44AM 33.6367 -84.4279 90° East  Level Estimated
09:51AM 33.6367 -84.4279 301° West  Level Estimated